Time;durP1;ratioP1;P1;durP2;ratioP2;P2;SDS_P1;SDS_P2;PMS_P1;PMS_P2;Temp;Humidity;BMP_temperature;BMP_pressure;BME280_temperature;BME280_humidity;BME280_pressure;Samples;Min_cycle;Max_cycle;Signal;HPM_P1;HPM_P2
2022/06/27 00:00:10;;;;;;;9.80;5.30;;;;;;;;;;5088491;28;20421;-71
2022/06/27 00:02:37;;;;;;;7.95;5.57;;;;;;;;;;5083811;28;20028;-71
2022/06/27 00:05:03;;;;;;;8.52;5.72;;;;;;;;;;5092740;28;20031;-71
2022/06/27 00:07:29;;;;;;;8.32;5.60;;;;;;;;;;5084659;28;20043;-71
2022/06/27 00:09:55;;;;;;;9.65;5.70;;;;;;;;;;5086179;28;20023;-71
2022/06/27 00:12:21;;;;;;;9.77;6.05;;;;;;;;;;5090869;28;20095;-71
2022/06/27 00:14:47;;;;;;;9.02;5.70;;;;;;;;;;5087052;28;20027;-71
2022/06/27 00:17:13;;;;;;;10.60;5.80;;;;;;;;;;5083867;27;20107;-71
2022/06/27 00:19:39;;;;;;;9.65;6.15;;;;;;;;;;5085954;28;20107;-72
2022/06/27 00:22:05;;;;;;;9.57;5.90;;;;;;;;;;5089906;28;20494;-71
2022/06/27 00:24:32;;;;;;;9.98;6.50;;;;;;;;;;5079229;28;20037;-71
2022/06/27 00:26:58;;;;;;;10.00;6.47;;;;;;;;;;5084341;28;20031;-71
2022/06/27 00:29:24;;;;;;;8.52;5.95;;;;;;;;;;5085369;28;20036;-71
2022/06/27 00:31:50;;;;;;;9.95;6.15;;;;;;;;;;5082383;28;20091;-71
2022/06/27 00:34:16;;;;;;;10.25;5.97;;;;;;;;;;5085881;28;20031;-71
2022/06/27 00:36:42;;;;;;;11.65;6.43;;;;;;;;;;5085521;28;20061;-71
2022/06/27 00:39:08;;;;;;;9.98;6.28;;;;;;;;;;5080335;28;20036;-71
2022/06/27 00:41:34;;;;;;;11.05;6.70;;;;;;;;;;5080963;28;20026;-71
2022/06/27 00:44:00;;;;;;;8.50;6.05;;;;;;;;;;5088926;28;20111;-71
2022/06/27 00:46:26;;;;;;;7.32;6.10;;;;;;;;;;5085417;28;20452;-71
2022/06/27 00:48:52;;;;;;;13.60;5.88;;;;;;;;;;5080973;28;20439;-71
2022/06/27 00:51:18;;;;;;;9.10;6.47;;;;;;;;;;5087505;28;20051;-72
2022/06/27 00:53:44;;;;;;;11.00;6.60;;;;;;;;;;5089385;28;20121;-71
2022/06/27 00:56:11;;;;;;;12.02;6.88;;;;;;;;;;5083592;28;20454;-71
2022/06/27 00:58:37;;;;;;;9.93;7.05;;;;;;;;;;5089586;28;20396;-71
2022/06/27 01:01:06;;;;;;;9.38;7.30;;;;;;;;;;5078743;28;20028;-71
2022/06/27 01:03:32;;;;;;;11.82;6.70;;;;;;;;;;5085307;28;21128;-71
2022/06/27 01:05:58;;;;;;;13.45;7.10;;;;;;;;;;5087691;28;20053;-71
2022/06/27 01:08:25;;;;;;;11.35;7.30;;;;;;;;;;5080373;28;20016;-71
2022/06/27 01:10:51;;;;;;;11.85;6.95;;;;;;;;;;5079968;28;20206;-71
2022/06/27 01:13:17;;;;;;;10.48;7.43;;;;;;;;;;5084258;28;20468;-71
2022/06/27 01:15:44;;;;;;;11.40;7.47;;;;;;;;;;5086794;28;20103;-71
2022/06/27 01:18:10;;;;;;;13.20;8.68;;;;;;;;;;5087094;28;20550;-71
2022/06/27 01:20:37;;;;;;;12.27;8.85;;;;;;;;;;5086718;28;20024;-70
2022/06/27 01:23:03;;;;;;;11.50;8.68;;;;;;;;;;5087824;28;20411;-70
2022/06/27 01:25:29;;;;;;;13.55;9.07;;;;;;;;;;5086251;28;20012;-71
2022/06/27 01:27:55;;;;;;;15.13;9.20;;;;;;;;;;5080459;28;20016;-70
2022/06/27 01:30:24;;;;;;;13.02;9.60;;;;;;;;;;5083030;28;20020;-70
2022/06/27 01:32:50;;;;;;;14.25;9.75;;;;;;;;;;5080679;28;20364;-71
2022/06/27 01:35:16;;;;;;;14.50;9.32;;;;;;;;;;5079942;28;20511;-70
2022/06/27 01:37:43;;;;;;;16.08;10.05;;;;;;;;;;5088263;28;20024;-71
2022/06/27 01:40:09;;;;;;;16.58;9.82;;;;;;;;;;5086807;28;20474;-71
2022/06/27 01:42:35;;;;;;;14.55;10.07;;;;;;;;;;5086352;28;20021;-71
2022/06/27 01:45:02;;;;;;;14.05;10.05;;;;;;;;;;5083708;28;20552;-71
2022/06/27 01:47:29;;;;;;;13.52;9.70;;;;;;;;;;5088227;28;20454;-71
2022/06/27 01:49:55;;;;;;;17.23;10.60;;;;;;;;;;5080003;28;20243;-70
2022/06/27 01:52:21;;;;;;;15.48;9.85;;;;;;;;;;5088202;28;20027;-71
2022/06/27 01:54:47;;;;;;;11.75;9.25;;;;;;;;;;5084386;28;20043;-71
2022/06/27 01:57:16;;;;;;;12.93;10.30;;;;;;;;;;5089882;28;20022;-71
2022/06/27 01:59:42;;;;;;;12.18;10.25;;;;;;;;;;5083768;28;20129;-71
2022/06/27 02:02:08;;;;;;;16.65;10.18;;;;;;;;;;5084540;28;20035;-71
2022/06/27 02:04:35;;;;;;;15.75;10.60;;;;;;;;;;5080223;28;20016;-71
2022/06/27 02:07:02;;;;;;;17.88;10.45;;;;;;;;;;5085065;28;20165;-71
2022/06/27 02:09:28;;;;;;;14.43;10.48;;;;;;;;;;5084340;28;20035;-71
2022/06/27 02:11:55;;;;;;;13.00;10.52;;;;;;;;;;5086639;28;20219;-71
2022/06/27 02:14:21;;;;;;;11.98;9.88;;;;;;;;;;5086455;28;20024;-71
2022/06/27 02:16:47;;;;;;;13.85;10.48;;;;;;;;;;5084775;28;20032;-71
2022/06/27 02:19:14;;;;;;;12.05;9.57;;;;;;;;;;5087579;28;20051;-71
2022/06/27 02:21:40;;;;;;;12.98;9.77;;;;;;;;;;5088322;28;20526;-71
2022/06/27 02:24:06;;;;;;;13.27;9.65;;;;;;;;;;5095032;28;20051;-71
2022/06/27 02:26:32;;;;;;;12.02;10.07;;;;;;;;;;5085601;28;20024;-71
2022/06/27 02:28:59;;;;;;;13.02;9.02;;;;;;;;;;5083971;28;20076;-71
2022/06/27 02:31:25;;;;;;;15.85;9.18;;;;;;;;;;5076775;28;20028;-71
2022/06/27 02:33:53;;;;;;;14.15;9.05;;;;;;;;;;5084685;28;20472;-70
2022/06/27 02:36:20;;;;;;;13.40;8.80;;;;;;;;;;5093295;28;20035;-71
2022/06/27 02:38:47;;;;;;;14.63;8.75;;;;;;;;;;5094656;28;20059;-71
2022/06/27 02:41:15;;;;;;;12.27;9.00;;;;;;;;;;5084423;28;20039;-71
2022/06/27 02:43:42;;;;;;;11.38;8.55;;;;;;;;;;5080295;28;20082;-71
2022/06/27 02:46:08;;;;;;;11.18;8.82;;;;;;;;;;5086025;28;20593;-70
2022/06/27 02:48:36;;;;;;;15.20;9.18;;;;;;;;;;5084588;28;20028;-70
2022/06/27 02:51:06;;;;;;;11.07;9.00;;;;;;;;;;5091227;28;20048;-71
2022/06/27 02:53:33;;;;;;;12.95;8.85;;;;;;;;;;5090136;28;20509;-71
2022/06/27 02:56:01;;;;;;;13.25;8.88;;;;;;;;;;5090405;28;20047;-71
2022/06/27 02:58:30;;;;;;;10.30;8.20;;;;;;;;;;5092277;28;20494;-71
2022/06/27 03:00:57;;;;;;;11.07;8.55;;;;;;;;;;5090532;28;20547;-71
2022/06/27 03:03:25;;;;;;;14.25;8.68;;;;;;;;;;5087254;27;20031;-71
2022/06/27 03:05:54;;;;;;;9.70;8.18;;;;;;;;;;5089583;28;20027;-71
2022/06/27 03:08:20;;;;;;;12.60;7.97;;;;;;;;;;5082106;28;20605;-71
2022/06/27 03:10:46;;;;;;;9.55;7.30;;;;;;;;;;5093690;28;20016;-71
2022/06/27 03:13:13;;;;;;;11.95;7.45;;;;;;;;;;5088560;28;20477;-71
2022/06/27 03:15:39;;;;;;;8.63;7.07;;;;;;;;;;5089316;28;20044;-71
2022/06/27 03:18:05;;;;;;;8.57;6.45;;;;;;;;;;5084445;28;20020;-71
2022/06/27 03:20:31;;;;;;;10.40;7.20;;;;;;;;;;5085349;28;20576;-71
2022/06/27 03:22:57;;;;;;;10.40;6.72;;;;;;;;;;5083374;28;20079;-71
2022/06/27 03:25:23;;;;;;;11.23;7.35;;;;;;;;;;5084123;28;20035;-71
2022/06/27 03:27:49;;;;;;;13.05;7.20;;;;;;;;;;5082442;28;20440;-71
2022/06/27 03:30:15;;;;;;;9.43;7.20;;;;;;;;;;5083919;28;20028;-71
2022/06/27 03:32:41;;;;;;;11.48;7.63;;;;;;;;;;5088178;28;20035;-71
2022/06/27 03:35:07;;;;;;;8.43;6.75;;;;;;;;;;5090992;28;20036;-71
2022/06/27 03:37:35;;;;;;;11.23;7.13;;;;;;;;;;5087035;28;20393;-71
2022/06/27 03:40:01;;;;;;;9.40;7.15;;;;;;;;;;5085673;28;20031;-71
2022/06/27 03:42:27;;;;;;;12.52;7.10;;;;;;;;;;5088555;28;20019;-71
2022/06/27 03:44:53;;;;;;;8.55;7.40;;;;;;;;;;5084034;28;20502;-71
2022/06/27 03:47:20;;;;;;;12.18;7.53;;;;;;;;;;5081344;28;20028;-71
2022/06/27 03:50:01;;;;;;;9.18;7.05;;;;;;;;;;5085629;28;20035;-71
2022/06/27 03:52:27;;;;;;;12.52;7.55;;;;;;;;;;5086872;28;20127;-71
2022/06/27 03:54:53;;;;;;;9.75;6.97;;;;;;;;;;5081407;28;20358;-71
2022/06/27 03:57:19;;;;;;;11.35;7.13;;;;;;;;;;5086115;28;20073;-71
2022/06/27 03:59:45;;;;;;;8.77;6.82;;;;;;;;;;5091344;27;20043;-72
2022/06/27 04:02:11;;;;;;;7.93;6.32;;;;;;;;;;5083221;28;20499;-72
2022/06/27 04:04:37;;;;;;;8.10;6.70;;;;;;;;;;5084935;28;20139;-71
2022/06/27 04:07:03;;;;;;;7.63;5.90;;;;;;;;;;5079824;28;20024;-72
2022/06/27 04:09:32;;;;;;;8.95;6.82;;;;;;;;;;5086179;28;20103;-72
2022/06/27 04:11:58;;;;;;;10.45;6.93;;;;;;;;;;5085216;28;20067;-71
2022/06/27 04:14:24;;;;;;;10.65;6.72;;;;;;;;;;5084580;28;20048;-72
2022/06/27 04:16:52;;;;;;;7.65;6.43;;;;;;;;;;5083573;28;20024;-73
2022/06/27 04:19:18;;;;;;;7.25;6.45;;;;;;;;;;5083704;28;20019;-72
2022/06/27 04:21:43;;;;;;;7.68;6.55;;;;;;;;;;5084987;28;20076;-72
2022/06/27 04:24:09;;;;;;;9.02;6.63;;;;;;;;;;5086514;28;20040;-71
2022/06/27 04:26:36;;;;;;;9.68;6.80;;;;;;;;;;5080255;28;20057;-72
2022/06/27 04:29:02;;;;;;;8.70;6.70;;;;;;;;;;5078817;28;20028;-72
2022/06/27 04:31:28;;;;;;;8.20;7.03;;;;;;;;;;5084979;28;20469;-72
2022/06/27 04:33:54;;;;;;;9.15;6.80;;;;;;;;;;5089877;28;20111;-72
2022/06/27 04:36:21;;;;;;;9.32;7.03;;;;;;;;;;5084423;28;20399;-71
2022/06/27 04:38:47;;;;;;;9.10;6.95;;;;;;;;;;5084714;28;20019;-71
2022/06/27 04:41:13;;;;;;;9.77;6.80;;;;;;;;;;5087023;28;20034;-69
2022/06/27 04:43:39;;;;;;;8.15;6.90;;;;;;;;;;5088094;28;20113;-70
2022/06/27 04:46:05;;;;;;;9.63;7.25;;;;;;;;;;5082278;28;20446;-67
2022/06/27 04:48:33;;;;;;;8.85;6.80;;;;;;;;;;5080679;28;20020;-67
2022/06/27 04:50:59;;;;;;;7.88;6.70;;;;;;;;;;5091592;28;20469;-68
2022/06/27 04:53:25;;;;;;;8.65;6.93;;;;;;;;;;5082303;28;20103;-68
2022/06/27 04:55:53;;;;;;;7.03;6.32;;;;;;;;;;5085050;28;20103;-68
2022/06/27 04:58:19;;;;;;;12.50;7.50;;;;;;;;;;5080764;28;20023;-67
2022/06/27 05:00:46;;;;;;;9.15;6.88;;;;;;;;;;5090864;28;20027;-68
2022/06/27 05:03:12;;;;;;;7.85;6.78;;;;;;;;;;5082004;28;20399;-68
2022/06/27 05:05:38;;;;;;;7.43;6.65;;;;;;;;;;5084718;28;20029;-68
2022/06/27 05:08:05;;;;;;;7.53;6.28;;;;;;;;;;5082634;28;20077;-68
2022/06/27 05:10:31;;;;;;;6.70;6.00;;;;;;;;;;5086609;28;20126;-68
2022/06/27 05:12:57;;;;;;;7.57;6.00;;;;;;;;;;5083486;28;20538;-68
2022/06/27 05:15:23;;;;;;;9.02;6.00;;;;;;;;;;5087665;28;20461;-68
2022/06/27 05:17:49;;;;;;;12.38;9.55;;;;;;;;;;5080286;28;20085;-69
2022/06/27 05:20:16;;;;;;;13.93;9.60;;;;;;;;;;5082176;28;20032;-69
2022/06/27 05:22:42;;;;;;;10.90;7.18;;;;;;;;;;5075536;28;20533;-68
2022/06/27 05:25:09;;;;;;;10.05;6.72;;;;;;;;;;5085288;28;20031;-68
2022/06/27 05:27:35;;;;;;;8.48;6.63;;;;;;;;;;5076058;28;20656;-68
2022/06/27 05:30:04;;;;;;;7.35;6.43;;;;;;;;;;5081050;28;20046;-68
2022/06/27 05:32:30;;;;;;;9.40;6.47;;;;;;;;;;5088237;28;20031;-68
2022/06/27 05:34:56;;;;;;;12.25;6.93;;;;;;;;;;5086699;28;20027;-68
2022/06/27 05:37:22;;;;;;;10.48;6.53;;;;;;;;;;5085221;28;20024;-68
2022/06/27 05:39:48;;;;;;;8.93;6.90;;;;;;;;;;5076066;28;20078;-68
2022/06/27 05:42:14;;;;;;;8.90;7.00;;;;;;;;;;5082970;28;20020;-68
2022/06/27 05:44:40;;;;;;;10.82;7.05;;;;;;;;;;5086329;28;20025;-68
2022/06/27 05:47:07;;;;;;;10.48;7.25;;;;;;;;;;5078281;28;20027;-68
2022/06/27 05:49:33;;;;;;;11.27;7.35;;;;;;;;;;5078365;28;20019;-68
2022/06/27 05:52:00;;;;;;;9.30;6.90;;;;;;;;;;5076394;28;20040;-68
2022/06/27 05:54:27;;;;;;;10.98;7.80;;;;;;;;;;5080833;28;20039;-69
2022/06/27 05:56:53;;;;;;;10.68;8.20;;;;;;;;;;5083004;28;20020;-68
2022/06/27 05:59:19;;;;;;;11.65;7.75;;;;;;;;;;5082463;28;20095;-68
2022/06/27 06:01:46;;;;;;;9.75;7.65;;;;;;;;;;5070225;28;20146;-68
2022/06/27 06:04:12;;;;;;;11.65;7.75;;;;;;;;;;5077977;28;20169;-65
2022/06/27 06:06:38;;;;;;;9.32;7.53;;;;;;;;;;5077100;28;20028;-66
2022/06/27 06:09:05;;;;;;;13.45;7.90;;;;;;;;;;5084842;28;20481;-66
2022/06/27 06:11:32;;;;;;;13.40;7.93;;;;;;;;;;5078023;28;20473;-66
2022/06/27 06:13:58;;;;;;;13.68;8.00;;;;;;;;;;5081813;28;20055;-66
2022/06/27 06:16:24;;;;;;;9.57;7.40;;;;;;;;;;5079587;28;20031;-66
2022/06/27 06:18:52;;;;;;;13.98;8.60;;;;;;;;;;5080838;28;20024;-66
2022/06/27 06:21:20;;;;;;;16.67;8.30;;;;;;;;;;5084456;28;20049;-66
2022/06/27 06:23:46;;;;;;;14.20;7.93;;;;;;;;;;5094491;28;20015;-66
2022/06/27 06:26:16;;;;;;;14.80;8.45;;;;;;;;;;5068814;28;20463;-66
2022/06/27 06:28:42;;;;;;;13.02;7.85;;;;;;;;;;5072826;28;20028;-66
2022/06/27 06:31:08;;;;;;;13.13;8.10;;;;;;;;;;5083542;28;20028;-66
2022/06/27 06:33:34;;;;;;;13.40;7.90;;;;;;;;;;5088454;28;20503;-66
2022/06/27 06:36:00;;;;;;;9.57;7.43;;;;;;;;;;5078580;28;20119;-65
2022/06/27 06:38:28;;;;;;;10.15;7.30;;;;;;;;;;5074387;28;20040;-66
2022/06/27 06:40:54;;;;;;;11.05;8.10;;;;;;;;;;5085872;28;20020;-66
2022/06/27 06:43:20;;;;;;;13.23;8.18;;;;;;;;;;5081609;28;20498;-65
2022/06/27 06:45:46;;;;;;;10.93;8.38;;;;;;;;;;5081896;28;20024;-66
2022/06/27 06:48:14;;;;;;;11.73;7.93;;;;;;;;;;5075086;28;20456;-66
2022/06/27 06:50:41;;;;;;;12.18;8.75;;;;;;;;;;5089784;28;20120;-66
2022/06/27 06:53:07;;;;;;;13.57;8.50;;;;;;;;;;5092332;28;20023;-65
2022/06/27 06:55:33;;;;;;;9.82;8.18;;;;;;;;;;5077862;28;20119;-66
2022/06/27 06:57:59;;;;;;;13.70;8.07;;;;;;;;;;5086239;28;20594;-66
2022/06/27 07:00:25;;;;;;;11.50;8.88;;;;;;;;;;5084355;28;20653;-66
2022/06/27 07:02:52;;;;;;;14.18;9.48;;;;;;;;;;5083528;28;20536;-66
2022/06/27 07:05:19;;;;;;;10.70;8.13;;;;;;;;;;5084441;28;20070;-66
2022/06/27 07:07:47;;;;;;;9.25;8.18;;;;;;;;;;5089591;28;20035;-66
2022/06/27 07:10:14;;;;;;;12.50;8.38;;;;;;;;;;5080475;28;20026;-65
2022/06/27 07:12:41;;;;;;;12.02;8.68;;;;;;;;;;5089663;28;20024;-66
2022/06/27 07:15:09;;;;;;;10.77;8.38;;;;;;;;;;5078232;28;20043;-66
2022/06/27 07:17:46;;;;;;;10.18;8.25;;;;;;;;;;5083263;28;20016;-65
2022/06/27 07:20:13;;;;;;;12.73;8.90;;;;;;;;;;5080461;28;20236;-67
2022/06/27 07:22:40;;;;;;;13.77;9.13;;;;;;;;;;5083540;28;20033;-68
2022/06/27 07:25:07;;;;;;;11.52;9.13;;;;;;;;;;5085859;28;20433;-68
2022/06/27 07:27:34;;;;;;;10.05;7.93;;;;;;;;;;5085580;28;20017;-68
2022/06/27 07:30:00;;;;;;;9.93;8.32;;;;;;;;;;5088157;28;20050;-68
2022/06/27 07:32:27;;;;;;;11.57;8.30;;;;;;;;;;5077596;28;20209;-68
2022/06/27 07:34:54;;;;;;;10.68;8.48;;;;;;;;;;5090970;28;20100;-68
2022/06/27 07:37:20;;;;;;;12.00;8.70;;;;;;;;;;5088567;28;20103;-68
2022/06/27 07:39:46;;;;;;;11.88;8.65;;;;;;;;;;5081561;28;20082;-68
2022/06/27 07:42:12;;;;;;;12.07;8.57;;;;;;;;;;5080794;28;20032;-68
2022/06/27 07:44:38;;;;;;;10.50;7.90;;;;;;;;;;5093365;28;20323;-68
2022/06/27 07:47:04;;;;;;;10.48;7.88;;;;;;;;;;5090977;28;20028;-68
2022/06/27 07:49:32;;;;;;;10.02;7.47;;;;;;;;;;5091661;28;20069;-68
2022/06/27 07:51:58;;;;;;;9.90;7.85;;;;;;;;;;5086069;28;20046;-68
2022/06/27 07:54:25;;;;;;;11.18;7.80;;;;;;;;;;5085398;28;20024;-68
2022/06/27 07:56:51;;;;;;;10.20;7.78;;;;;;;;;;5089858;28;20012;-68
2022/06/27 07:59:18;;;;;;;10.07;7.32;;;;;;;;;;5082366;28;20024;-68
2022/06/27 08:01:44;;;;;;;10.27;7.55;;;;;;;;;;5084950;28;20391;-68
2022/06/27 08:04:13;;;;;;;9.82;8.05;;;;;;;;;;5081261;28;20050;-68
2022/06/27 08:06:39;;;;;;;10.77;8.05;;;;;;;;;;5088782;28;20030;-68
2022/06/27 08:09:06;;;;;;;11.20;8.35;;;;;;;;;;5084519;28;20020;-68
2022/06/27 08:11:33;;;;;;;10.32;7.75;;;;;;;;;;5086032;28;20094;-68
2022/06/27 08:14:03;;;;;;;11.73;7.40;;;;;;;;;;5078286;28;20488;-68
2022/06/27 08:16:29;;;;;;;9.05;6.93;;;;;;;;;;5089339;28;20670;-68
2022/06/27 08:18:55;;;;;;;9.48;7.15;;;;;;;;;;5089100;28;20027;-68
2022/06/27 08:21:27;;;;;;;9.77;7.90;;;;;;;;;;5090725;28;20024;-68
2022/06/27 08:23:53;;;;;;;10.20;7.70;;;;;;;;;;5088740;28;20045;-68
2022/06/27 08:26:21;;;;;;;8.10;7.20;;;;;;;;;;5082549;28;20531;-68
2022/06/27 08:28:47;;;;;;;13.15;8.60;;;;;;;;;;5082379;28;20089;-68
2022/06/27 08:31:14;;;;;;;11.65;7.72;;;;;;;;;;5088132;28;20112;-68
2022/06/27 08:33:40;;;;;;;10.75;7.32;;;;;;;;;;5085169;28;20024;-68
2022/06/27 08:36:07;;;;;;;10.90;7.45;;;;;;;;;;5089767;28;20063;-68
2022/06/27 08:38:40;;;;;;;10.25;7.75;;;;;;;;;;5085543;28;20095;-67
2022/06/27 08:41:06;;;;;;;9.05;7.47;;;;;;;;;;5084497;28;20078;-68
2022/06/27 08:43:32;;;;;;;8.57;7.53;;;;;;;;;;5088463;28;20027;-68
2022/06/27 08:45:58;;;;;;;9.15;6.80;;;;;;;;;;5083670;28;20020;-68
2022/06/27 08:48:25;;;;;;;9.75;6.97;;;;;;;;;;5085683;28;20065;-67
2022/06/27 08:50:52;;;;;;;10.98;7.75;;;;;;;;;;5088591;28;20158;-68
2022/06/27 08:53:18;;;;;;;10.43;7.38;;;;;;;;;;5090285;28;20020;-67
2022/06/27 08:55:46;;;;;;;12.00;7.85;;;;;;;;;;5081041;28;20069;-67
2022/06/27 08:58:13;;;;;;;12.20;8.52;;;;;;;;;;5080313;28;20024;-68
2022/06/27 09:00:45;;;;;;;12.45;7.95;;;;;;;;;;5083426;28;20114;-68
2022/06/27 09:03:11;;;;;;;12.25;8.75;;;;;;;;;;5082709;28;20019;-67
2022/06/27 09:05:37;;;;;;;11.63;8.32;;;;;;;;;;5086395;28;20028;-67
2022/06/27 09:08:07;;;;;;;11.45;8.02;;;;;;;;;;5081552;28;20425;-67
2022/06/27 09:10:35;;;;;;;10.82;8.00;;;;;;;;;;5087202;28;20564;-67
2022/06/27 09:13:03;;;;;;;10.43;8.10;;;;;;;;;;5085816;28;20035;-68
2022/06/27 09:15:49;;;;;;;10.32;7.75;;;;;;;;;;5078984;28;20067;-68
2022/06/27 09:18:17;;;;;;;8.88;7.13;;;;;;;;;;5082866;28;20224;-68
2022/06/27 09:20:49;;;;;;;8.63;7.45;;;;;;;;;;5084787;28;20416;-68
2022/06/27 09:23:27;;;;;;;10.15;8.05;;;;;;;;;;5086210;28;20022;-67
2022/06/27 09:25:58;;;;;;;12.18;8.75;;;;;;;;;;5083025;28;20039;-68
2022/06/27 09:28:36;;;;;;;8.00;7.20;;;;;;;;;;5077019;28;20477;-67
2022/06/27 09:31:02;;;;;;;11.23;9.43;;;;;;;;;;5077620;28;20623;-67
2022/06/27 09:33:31;;;;;;;10.48;8.07;;;;;;;;;;5082498;28;20024;-67
2022/06/27 09:35:57;;;;;;;12.73;8.85;;;;;;;;;;5076155;28;20025;-67
2022/06/27 09:38:25;;;;;;;10.98;8.18;;;;;;;;;;5085802;28;20069;-67
2022/06/27 09:40:51;;;;;;;10.82;8.10;;;;;;;;;;5082333;28;20028;-67
2022/06/27 09:43:19;;;;;;;13.48;9.15;;;;;;;;;;5078833;28;20115;-67
2022/06/27 09:45:46;;;;;;;11.52;8.52;;;;;;;;;;5084543;28;20020;-67
2022/06/27 09:48:12;;;;;;;15.23;9.85;;;;;;;;;;5089239;28;20016;-67
2022/06/27 09:50:42;;;;;;;11.00;8.85;;;;;;;;;;5085578;28;20032;-67
2022/06/27 09:53:08;;;;;;;13.32;8.60;;;;;;;;;;5086207;28;20047;-68
2022/06/27 09:55:35;;;;;;;9.73;8.05;;;;;;;;;;5083145;28;20021;-68
2022/06/27 09:58:03;;;;;;;9.90;7.65;;;;;;;;;;5081213;28;20036;-68
2022/06/27 10:00:30;;;;;;;12.13;8.18;;;;;;;;;;5081749;28;20479;-68
2022/06/27 10:02:57;;;;;;;9.82;8.40;;;;;;;;;;5084591;28;20462;-68
2022/06/27 10:05:23;;;;;;;12.40;9.05;;;;;;;;;;5085109;28;20020;-67
2022/06/27 10:07:54;;;;;;;10.32;7.80;;;;;;;;;;5087326;28;20032;-68
2022/06/27 10:10:20;;;;;;;9.63;7.22;;;;;;;;;;5083706;28;20016;-68
2022/06/27 10:12:55;;;;;;;12.98;8.10;;;;;;;;;;5086164;28;20463;-67
2022/06/27 10:15:22;;;;;;;10.70;7.35;;;;;;;;;;5081090;28;20919;-68
2022/06/27 10:17:49;;;;;;;11.35;7.57;;;;;;;;;;5081017;28;20036;-68
2022/06/27 10:20:20;;;;;;;10.93;7.43;;;;;;;;;;5086216;28;20020;-67
2022/06/27 10:23:04;;;;;;;11.50;7.72;;;;;;;;;;5084826;28;20483;-68
2022/06/27 10:25:30;;;;;;;10.82;7.43;;;;;;;;;;5081297;28;20163;-68
2022/06/27 10:28:08;;;;;;;10.90;8.05;;;;;;;;;;5081829;28;20122;-68
2022/06/27 10:30:43;;;;;;;11.35;7.70;;;;;;;;;;5071565;28;20556;-67
2022/06/27 10:33:18;;;;;;;11.77;7.75;;;;;;;;;;5086544;28;20751;-67
2022/06/27 10:36:02;;;;;;;12.00;7.70;;;;;;;;;;5082346;28;20085;-67
2022/06/27 10:38:32;;;;;;;9.25;7.38;;;;;;;;;;5093937;28;20047;-67
2022/06/27 10:40:59;;;;;;;10.65;7.38;;;;;;;;;;5084773;28;20039;-67
2022/06/27 10:43:37;;;;;;;13.25;7.10;;;;;;;;;;5090193;28;20028;-67
2022/06/27 10:46:09;;;;;;;11.77;7.30;;;;;;;;;;5088026;28;20093;-68
2022/06/27 10:48:36;;;;;;;12.10;6.95;;;;;;;;;;5086866;28;20471;-68
2022/06/27 10:51:22;;;;;;;11.18;8.15;;;;;;;;;;5089647;28;20474;-68
2022/06/27 10:53:48;;;;;;;9.68;7.70;;;;;;;;;;5086202;28;20087;-68
2022/06/27 10:56:29;;;;;;;14.00;7.40;;;;;;;;;;5084377;28;20028;-67
2022/06/27 10:58:55;;;;;;;11.40;8.32;;;;;;;;;;5090865;28;20387;-67
2022/06/27 11:01:21;;;;;;;14.43;10.05;;;;;;;;;;5089635;28;20032;-68
2022/06/27 11:03:49;;;;;;;12.82;10.15;;;;;;;;;;5095780;28;20764;-68
2022/06/27 11:06:16;;;;;;;15.23;11.13;;;;;;;;;;5090087;28;20065;-67
2022/06/27 11:08:44;;;;;;;18.10;12.20;;;;;;;;;;5085872;28;20024;-67
2022/06/27 11:11:16;;;;;;;15.38;11.20;;;;;;;;;;5092915;28;20036;-68
2022/06/27 11:13:43;;;;;;;15.32;10.85;;;;;;;;;;5090424;28;20081;-68
2022/06/27 11:16:13;;;;;;;14.40;10.32;;;;;;;;;;5086327;28;20046;-68
2022/06/27 11:18:42;;;;;;;16.45;10.80;;;;;;;;;;5083409;28;21051;-68
2022/06/27 11:21:09;;;;;;;15.88;10.98;;;;;;;;;;5087373;28;20388;-67
2022/06/27 11:23:48;;;;;;;16.10;10.93;;;;;;;;;;5084669;28;20451;-67
2022/06/27 11:26:14;;;;;;;14.38;10.43;;;;;;;;;;5083681;28;20491;-67
2022/06/27 11:34:09;;;;;;;15.80;10.68;;;;;;;;;;5088146;28;20039;-67
2022/06/27 11:36:37;;;;;;;14.77;10.80;;;;;;;;;;5090369;28;20020;-67
2022/06/27 11:39:03;;;;;;;14.02;11.15;;;;;;;;;;5089128;28;20044;-67
2022/06/27 11:41:32;;;;;;;15.10;11.02;;;;;;;;;;5086483;28;20567;-68
2022/06/27 11:44:02;;;;;;;14.10;11.77;;;;;;;;;;5086743;28;20039;-67
2022/06/27 11:46:30;;;;;;;16.13;11.75;;;;;;;;;;5086212;28;20503;-67
2022/06/27 11:49:16;;;;;;;13.77;11.80;;;;;;;;;;5086028;28;20092;-67
2022/06/27 11:51:47;;;;;;;15.35;13.02;;;;;;;;;;5092534;28;20016;-67
2022/06/27 11:54:21;;;;;;;16.73;12.32;;;;;;;;;;5081075;28;20016;-68
2022/06/27 11:56:49;;;;;;;15.40;12.30;;;;;;;;;;5082849;28;20029;-67
2022/06/27 11:59:15;;;;;;;19.60;13.02;;;;;;;;;;5086417;28;20110;-67
2022/06/27 12:01:52;;;;;;;15.18;12.50;;;;;;;;;;5083561;28;20035;-67
2022/06/27 12:04:18;;;;;;;14.98;11.43;;;;;;;;;;5088909;28;20073;-67
2022/06/27 12:06:46;;;;;;;14.88;10.73;;;;;;;;;;5088326;28;20020;-68
2022/06/27 12:09:12;;;;;;;16.65;11.80;;;;;;;;;;5088908;28;20106;-68
2022/06/27 12:11:47;;;;;;;16.08;12.32;;;;;;;;;;5079629;28;20783;-68
2022/06/27 12:14:13;;;;;;;14.43;10.88;;;;;;;;;;5081790;28;20491;-68
2022/06/27 12:16:50;;;;;;;19.40;12.07;;;;;;;;;;5087186;28;20055;-68
2022/06/27 12:19:16;;;;;;;17.45;11.35;;;;;;;;;;5076942;28;20423;-68
2022/06/27 12:21:42;;;;;;;13.95;10.40;;;;;;;;;;5090003;28;20502;-68
2022/06/27 12:24:09;;;;;;;13.13;10.45;;;;;;;;;;5084107;28;20062;-68
2022/06/27 12:26:35;;;;;;;13.27;9.85;;;;;;;;;;5080840;28;20020;-67
2022/06/27 12:29:01;;;;;;;11.82;8.50;;;;;;;;;;5087109;28;20383;-67
2022/06/27 12:31:27;;;;;;;13.27;9.90;;;;;;;;;;5084413;28;20220;-67
2022/06/27 12:33:54;;;;;;;14.80;10.20;;;;;;;;;;5079957;28;20020;-68
2022/06/27 12:36:20;;;;;;;13.13;9.57;;;;;;;;;;5086511;28;20080;-68
2022/06/27 12:38:45;;;;;;;12.98;10.20;;;;;;;;;;5084930;28;20024;-67
2022/06/27 12:41:11;;;;;;;14.25;11.00;;;;;;;;;;5085952;28;20386;-67
2022/06/27 12:43:41;;;;;;;12.48;9.85;;;;;;;;;;5084393;28;20031;-67
2022/06/27 12:46:07;;;;;;;12.63;8.85;;;;;;;;;;5090632;28;20526;-67
2022/06/27 12:48:33;;;;;;;16.17;8.88;;;;;;;;;;5087035;28;20463;-67
2022/06/27 12:51:00;;;;;;;12.75;9.60;;;;;;;;;;5086957;28;20032;-67
2022/06/27 12:53:26;;;;;;;13.43;10.95;;;;;;;;;;5084230;28;20032;-67
2022/06/27 12:55:53;;;;;;;14.48;11.70;;;;;;;;;;5086009;28;20032;-67
2022/06/27 12:58:22;;;;;;;12.32;10.73;;;;;;;;;;5080804;28;20046;-67
2022/06/27 13:00:48;;;;;;;16.38;11.13;;;;;;;;;;5082140;28;20357;-67
2022/06/27 13:03:14;;;;;;;13.88;10.30;;;;;;;;;;5086644;28;20024;-67
2022/06/27 13:05:40;;;;;;;11.40;8.95;;;;;;;;;;5082523;28;20488;-67
2022/06/27 13:08:07;;;;;;;14.10;9.40;;;;;;;;;;5084322;28;20026;-67
2022/06/27 13:10:33;;;;;;;12.00;8.68;;;;;;;;;;5079509;28;20632;-67
2022/06/27 13:12:59;;;;;;;12.02;8.85;;;;;;;;;;5080268;28;20035;-67
2022/06/27 13:15:25;;;;;;;12.02;9.23;;;;;;;;;;5075493;28;20442;-67
2022/06/27 13:17:51;;;;;;;11.68;7.90;;;;;;;;;;5079942;28;20566;-67
2022/06/27 13:20:17;;;;;;;8.23;6.75;;;;;;;;;;5077218;28;20023;-67
2022/06/27 13:22:43;;;;;;;11.18;6.85;;;;;;;;;;5087982;28;20084;-67
2022/06/27 13:25:10;;;;;;;7.50;6.10;;;;;;;;;;5084781;28;20104;-67
2022/06/27 13:27:36;;;;;;;10.25;5.47;;;;;;;;;;5081362;28;20796;-65
2022/06/27 13:30:04;;;;;;;10.82;8.20;;;;;;;;;;5073465;28;20035;-67
2022/06/27 13:32:30;;;;;;;10.23;6.47;;;;;;;;;;5080725;28;20092;-67
2022/06/27 13:34:57;;;;;;;9.30;6.03;;;;;;;;;;5084113;28;20024;-67
2022/06/27 13:37:23;;;;;;;6.85;4.53;;;;;;;;;;5086304;28;20502;-67
2022/06/27 13:39:49;;;;;;;7.88;4.95;;;;;;;;;;5082913;28;20028;-67
2022/06/27 13:42:15;;;;;;;11.45;4.70;;;;;;;;;;5084270;28;20031;-67
2022/06/27 13:44:41;;;;;;;6.75;3.83;;;;;;;;;;5088806;28;20026;-68
2022/06/27 13:47:08;;;;;;;7.05;3.88;;;;;;;;;;5086821;28;20099;-68
2022/06/27 13:49:34;;;;;;;6.53;3.78;;;;;;;;;;5089264;28;20092;-67
2022/06/27 13:52:02;;;;;;;10.77;4.30;;;;;;;;;;5077274;28;20059;-67
2022/06/27 13:54:28;;;;;;;4.45;2.35;;;;;;;;;;5083342;28;20085;-67
2022/06/27 13:56:54;;;;;;;9.18;2.80;;;;;;;;;;5084911;28;20683;-67
2022/06/27 13:59:20;;;;;;;4.43;2.42;;;;;;;;;;5087633;28;20020;-67
2022/06/27 14:01:46;;;;;;;5.53;2.08;;;;;;;;;;5079175;28;20809;-67
2022/06/27 14:04:12;;;;;;;3.08;1.80;;;;;;;;;;5086218;28;20227;-67
2022/06/27 14:09:24;;;;;;;5.75;3.10;;;;;;;;;;5082103;28;20494;-68
2022/06/27 14:11:50;;;;;;;4.90;2.78;;;;;;;;;;5088728;28;20216;-67
2022/06/27 14:14:16;;;;;;;5.00;2.65;;;;;;;;;;5089187;28;20024;-67
2022/06/27 14:16:42;;;;;;;4.00;3.20;;;;;;;;;;5084841;28;20031;-68
2022/06/27 14:19:09;;;;;;;11.27;1.90;;;;;;;;;;5086380;28;20031;-68
2022/06/27 14:21:36;;;;;;;5.38;1.15;;;;;;;;;;5082002;28;20545;-67
2022/06/27 14:24:02;;;;;;;2.97;0.90;;;;;;;;;;5081540;28;20032;-67
2022/06/27 14:26:28;;;;;;;6.05;1.00;;;;;;;;;;5080219;28;20102;-67
2022/06/27 14:28:54;;;;;;;4.97;0.98;;;;;;;;;;5078240;28;20368;-67
2022/06/27 14:31:20;;;;;;;4.03;0.95;;;;;;;;;;5080534;28;20036;-67
2022/06/27 14:33:47;;;;;;;5.25;1.00;;;;;;;;;;5076354;28;20025;-65
2022/06/27 14:36:13;;;;;;;4.35;1.58;;;;;;;;;;5077127;28;20711;-63
2022/06/27 14:38:39;;;;;;;4.90;1.48;;;;;;;;;;5078287;28;20027;-61
2022/06/27 14:41:06;;;;;;;6.07;1.50;;;;;;;;;;5081672;28;20024;-63